Time;durP1;ratioP1;P1;durP2;ratioP2;P2;SDS_P1;SDS_P2;PMS_P1;PMS_P2;Temp;Humidity;BMP_temperature;BMP_pressure;BME280_temperature;BME280_humidity;BME280_pressure;Samples;Min_cycle;Max_cycle;Signal;HPM_P1;HPM_P2
2024/02/08 00:00:43;;;;;;;;;;;-1.60;100.00;;;;;;5007959;28;20349;-68
2024/02/08 00:03:13;;;;;;;;;;;-1.60;100.00;;;;;;5008339;28;20503;-68
2024/02/08 00:05:40;;;;;;;;;;;-1.60;100.00;;;;;;5007533;28;19933;-68
2024/02/08 00:08:07;;;;;;;;;;;-1.60;100.00;;;;;;5006766;28;20015;-68
2024/02/08 00:10:34;;;;;;;;;;;-1.50;100.00;;;;;;5007270;28;20326;-68
2024/02/08 00:13:01;;;;;;;;;;;-1.50;100.00;;;;;;5007684;28;19936;-68
2024/02/08 00:15:29;;;;;;;;;;;-1.40;100.00;;;;;;5007236;28;19999;-68
2024/02/08 00:17:59;;;;;;;;;;;-1.40;100.00;;;;;;5007185;28;19937;-68
2024/02/08 00:20:26;;;;;;;;;;;-1.40;100.00;;;;;;5006555;28;19941;-68
2024/02/08 00:22:53;;;;;;;;;;;-1.30;100.00;;;;;;5002359;28;19933;-68
2024/02/08 00:25:24;;;;;;;;;;;-1.30;100.00;;;;;;5015222;28;20417;-68
2024/02/08 00:27:54;;;;;;;;;;;-1.20;100.00;;;;;;5007583;28;19948;-68
2024/02/08 00:30:21;;;;;;;;;;;-1.20;100.00;;;;;;5027578;28;19957;-68
2024/02/08 00:32:48;;;;;;;;;;;-1.20;100.00;;;;;;4987946;28;19930;-68
2024/02/08 00:35:19;;;;;;;;;;;-1.20;100.00;;;;;;4988714;28;20301;-68
2024/02/08 00:37:48;;;;;;;;;;;-1.10;100.00;;;;;;5006624;28;20035;-68
2024/02/08 00:40:18;;;;;;;;;;;-1.10;100.00;;;;;;5006108;28;19937;-68
2024/02/08 00:42:48;;;;;;;;;;;-1.10;100.00;;;;;;5006330;28;19975;-68
2024/02/08 00:45:16;;;;;;;;;;;-1.00;100.00;;;;;;5014486;28;20117;-68
2024/02/08 00:47:43;;;;;;;;;;;-1.00;100.00;;;;;;4989771;28;20595;-68
2024/02/08 00:50:10;;;;;;;;;;;-0.90;100.00;;;;;;5007527;28;20048;-68
2024/02/08 00:52:37;;;;;;;;;;;-1.00;100.00;;;;;;5020080;28;19933;-68
2024/02/08 00:55:04;;;;;;;;;;;-0.90;100.00;;;;;;5003070;28;19952;-68
2024/02/08 00:57:32;;;;;;;;;;;-0.90;100.00;;;;;;5009752;28;19961;-68
2024/02/08 00:59:59;;;;;;;;;;;-0.90;100.00;;;;;;5013157;28;20514;-68
2024/02/08 01:02:26;;;;;;;;;;;-0.90;100.00;;;;;;5006700;28;19929;-68
2024/02/08 01:04:54;;;;;;;;;;;-0.90;100.00;;;;;;5006670;28;19965;-68
2024/02/08 01:07:25;;;;;;;;;;;-0.80;100.00;;;;;;5006737;28;20019;-68
2024/02/08 01:09:52;;;;;;;;;;;-0.90;100.00;;;;;;5006791;28;19932;-68
2024/02/08 01:12:19;;;;;;;;;;;-0.80;100.00;;;;;;5010144;28;20409;-68
2024/02/08 01:14:49;;;;;;;;;;;-0.80;100.00;;;;;;5016059;28;19939;-68
2024/02/08 01:17:16;;;;;;;;;;;-0.80;100.00;;;;;;5006885;28;20350;-68
2024/02/08 01:19:43;;;;;;;;;;;-0.80;100.00;;;;;;5006680;28;19925;-68
2024/02/08 01:22:19;;;;;;;;;;;-0.80;100.00;;;;;;4988459;28;19988;-68
2024/02/08 01:24:49;;;;;;;;;;;-0.80;100.00;;;;;;5010050;28;19933;-68
2024/02/08 01:27:20;;;;;;;;;;;-0.80;100.00;;;;;;5007599;28;19933;-68
2024/02/08 01:29:49;;;;;;;;;;;-0.80;100.00;;;;;;5008653;28;19929;-68
2024/02/08 01:32:17;;;;;;;;;;;-0.80;100.00;;;;;;5015122;28;19975;-68
2024/02/08 01:34:44;;;;;;;;;;;-0.80;100.00;;;;;;5006944;28;19929;-68
2024/02/08 01:37:13;;;;;;;;;;;-0.90;100.00;;;;;;5006703;28;19936;-68
2024/02/08 01:39:40;;;;;;;;;;;-0.90;100.00;;;;;;5006223;28;20008;-68
2024/02/08 01:42:11;;;;;;;;;;;-0.90;100.00;;;;;;4988294;28;19925;-68
2024/02/08 01:44:42;;;;;;;;;;;-0.90;100.00;;;;;;5008362;28;19976;-68
2024/02/08 01:47:09;;;;;;;;;;;-0.90;100.00;;;;;;5018033;28;19958;-68
2024/02/08 01:49:36;;;;;;;;;;;-0.90;100.00;;;;;;5008601;28;20001;-68
2024/02/08 01:52:03;;;;;;;;;;;-0.90;100.00;;;;;;5006083;28;20029;-68
2024/02/08 01:54:30;;;;;;;;;;;-0.80;100.00;;;;;;4988791;28;20023;-68
2024/02/08 01:56:58;;;;;;;;;;;-0.80;100.00;;;;;;4987742;28;20046;-68
2024/02/08 01:59:27;;;;;;;;;;;-0.80;100.00;;;;;;5001691;28;19940;-68
2024/02/08 02:01:56;;;;;;;;;;;-0.80;100.00;;;;;;4989081;28;19929;-68
2024/02/08 02:04:23;;;;;;;;;;;-0.70;100.00;;;;;;4988228;28;20008;-68
2024/02/08 02:06:50;;;;;;;;;;;-0.70;100.00;;;;;;4988392;28;20321;-68
2024/02/08 02:09:23;;;;;;;;;;;-0.70;100.00;;;;;;5005333;28;19933;-68
2024/02/08 02:11:51;;;;;;;;;;;-0.70;100.00;;;;;;5014251;28;19933;-68
2024/02/08 02:14:18;;;;;;;;;;;-0.70;100.00;;;;;;5006189;28;19929;-68
2024/02/08 02:16:52;;;;;;;;;;;-0.70;100.00;;;;;;5007586;28;19936;-68
2024/02/08 02:19:18;;;;;;;;;;;-0.70;100.00;;;;;;5006128;28;19936;-68
2024/02/08 02:21:46;;;;;;;;;;;-0.70;100.00;;;;;;5005990;28;19929;-68
2024/02/08 02:24:13;;;;;;;;;;;-0.70;100.00;;;;;;4987488;28;19929;-68
2024/02/08 02:26:40;;;;;;;;;;;-0.70;100.00;;;;;;5004799;28;20031;-68
2024/02/08 02:29:06;;;;;;;;;;;-0.70;100.00;;;;;;5019120;28;20019;-68
2024/02/08 02:31:33;;;;;;;;;;;-0.70;100.00;;;;;;5010690;28;19930;-68
2024/02/08 02:34:00;;;;;;;;;;;-0.70;100.00;;;;;;4988041;28;20604;-68
2024/02/08 02:36:27;;;;;;;;;;;-0.80;100.00;;;;;;5005779;28;19960;-68
2024/02/08 02:38:54;;;;;;;;;;;-0.70;100.00;;;;;;4987118;28;20376;-68
2024/02/08 02:41:25;;;;;;;;;;;-0.70;100.00;;;;;;4994203;28;19929;-68
2024/02/08 02:43:52;;;;;;;;;;;-0.70;100.00;;;;;;5005986;28;19960;-68
2024/02/08 02:46:22;;;;;;;;;;;-0.70;100.00;;;;;;5005548;28;19930;-68
2024/02/08 02:48:50;;;;;;;;;;;-0.70;100.00;;;;;;5005819;28;20719;-68
2024/02/08 02:51:19;;;;;;;;;;;-0.70;100.00;;;;;;5004551;28;20416;-68
2024/02/08 02:53:46;;;;;;;;;;;-0.60;100.00;;;;;;4988549;28;19944;-68
2024/02/08 02:56:15;;;;;;;;;;;-0.60;100.00;;;;;;5005727;28;19937;-68
2024/02/08 02:58:42;;;;;;;;;;;-0.60;100.00;;;;;;5008653;28;19933;-68
2024/02/08 03:01:09;;;;;;;;;;;-0.60;100.00;;;;;;5009598;28;19930;-68
2024/02/08 03:03:37;;;;;;;;;;;-0.50;100.00;;;;;;5011283;28;20492;-68
2024/02/08 03:06:13;;;;;;;;;;;-0.50;100.00;;;;;;5008944;28;19935;-68
2024/02/08 03:08:42;;;;;;;;;;;-0.50;100.00;;;;;;4996428;28;20016;-68
2024/02/08 03:11:11;;;;;;;;;;;-0.40;100.00;;;;;;5009200;28;19929;-68
2024/02/08 03:13:41;;;;;;;;;;;-0.40;100.00;;;;;;5008881;28;20665;-68
2024/02/08 03:16:14;;;;;;;;;;;-0.30;100.00;;;;;;5008904;28;19929;-68
2024/02/08 03:18:46;;;;;;;;;;;-0.30;100.00;;;;;;4994460;28;19925;-68
2024/02/08 03:21:21;;;;;;;;;;;-0.20;100.00;;;;;;5020284;28;20028;-68
2024/02/08 03:23:49;;;;;;;;;;;-0.20;100.00;;;;;;5008533;28;19929;-68
2024/02/08 03:26:17;;;;;;;;;;;-0.20;100.00;;;;;;4990826;28;19931;-68
2024/02/08 03:28:44;;;;;;;;;;;-0.20;100.00;;;;;;5014094;28;19929;-68
2024/02/08 03:31:13;;;;;;;;;;;-0.20;100.00;;;;;;4991341;28;20049;-68
2024/02/08 03:33:43;;;;;;;;;;;-0.10;100.00;;;;;;4995854;28;19926;-68
2024/02/08 03:36:12;;;;;;;;;;;-0.10;100.00;;;;;;5008815;28;20270;-68
2024/02/08 03:38:39;;;;;;;;;;;-0.10;100.00;;;;;;5014041;28;19933;-68
2024/02/08 03:41:06;;;;;;;;;;;-0.10;100.00;;;;;;4995655;28;19929;-68
2024/02/08 03:43:32;;;;;;;;;;;-0.10;100.00;;;;;;5008810;28;19964;-68
2024/02/08 03:46:01;;;;;;;;;;;-0.10;100.00;;;;;;5009006;28;20027;-68
2024/02/08 03:48:28;;;;;;;;;;;-0.10;100.00;;;;;;5008920;28;19929;-68
2024/02/08 03:51:00;;;;;;;;;;;0.00;100.00;;;;;;5012914;28;19997;-68
2024/02/08 03:53:28;;;;;;;;;;;0.00;100.00;;;;;;4992664;28;19937;-68
2024/02/08 03:55:55;;;;;;;;;;;0.00;100.00;;;;;;5009714;28;19991;-68
2024/02/08 03:58:23;;;;;;;;;;;0.00;100.00;;;;;;5007261;28;20362;-68
2024/02/08 04:00:53;;;;;;;;;;;0.00;100.00;;;;;;5007193;28;19929;-68
2024/02/08 04:06:26;;;;;;;;;;;0.00;100.00;;;;;;5005538;28;19937;-68
2024/02/08 04:09:06;;;;;;;;;;;0.00;100.00;;;;;;5006827;28;19980;-68
2024/02/08 04:55:40;;;;;;;;;;;0.20;100.00;;;;;;5007361;28;19933;-68
2024/02/08 04:58:08;;;;;;;;;;;0.20;100.00;;;;;;5015137;28;19930;-68
2024/02/08 05:00:54;;;;;;;;;;;0.30;100.00;;;;;;5014196;28;19936;-68
2024/02/08 05:03:22;;;;;;;;;;;0.30;100.00;;;;;;5013652;28;19929;-68
2024/02/08 05:05:49;;;;;;;;;;;0.30;100.00;;;;;;5006619;28;20016;-68
2024/02/08 05:08:16;;;;;;;;;;;0.40;100.00;;;;;;4988260;28;20441;-68
2024/02/08 05:10:44;;;;;;;;;;;0.40;100.00;;;;;;5006490;28;19980;-68
2024/02/08 05:13:13;;;;;;;;;;;0.40;100.00;;;;;;5006122;28;19929;-68
2024/02/08 05:15:42;;;;;;;;;;;0.40;100.00;;;;;;5009831;28;20395;-68
2024/02/08 05:18:11;;;;;;;;;;;0.50;100.00;;;;;;5017736;28;19975;-68
2024/02/08 05:20:39;;;;;;;;;;;0.50;100.00;;;;;;5009198;28;19937;-68
2024/02/08 05:23:05;;;;;;;;;;;0.50;100.00;;;;;;5017311;28;19928;-68
2024/02/08 05:25:35;;;;;;;;;;;0.50;100.00;;;;;;5014676;28;19980;-68
2024/02/08 05:28:03;;;;;;;;;;;0.50;100.00;;;;;;5006393;28;19988;-68
2024/02/08 05:30:32;;;;;;;;;;;0.50;100.00;;;;;;5006083;28;19930;-68
2024/02/08 05:33:01;;;;;;;;;;;0.50;100.00;;;;;;5005770;28;19929;-68
2024/02/08 05:35:32;;;;;;;;;;;0.50;100.00;;;;;;5008621;28;19937;-68
2024/02/08 05:38:00;;;;;;;;;;;0.50;100.00;;;;;;5022333;28;19933;-68
2024/02/08 05:40:30;;;;;;;;;;;0.50;100.00;;;;;;5010554;28;19929;-68
2024/02/08 05:42:58;;;;;;;;;;;0.50;100.00;;;;;;5005932;28;19925;-68
2024/02/08 05:45:30;;;;;;;;;;;0.50;100.00;;;;;;4988828;28;20417;-68
2024/02/08 05:48:00;;;;;;;;;;;0.50;100.00;;;;;;5006157;28;20307;-68
2024/02/08 05:50:27;;;;;;;;;;;0.50;100.00;;;;;;5012815;28;19941;-68
2024/02/08 05:52:58;;;;;;;;;;;0.50;100.00;;;;;;5005748;28;19933;-68
2024/02/08 05:55:25;;;;;;;;;;;0.50;100.00;;;;;;5007680;28;19965;-68
2024/02/08 05:57:58;;;;;;;;;;;0.50;100.00;;;;;;5005326;28;20014;-68
2024/02/08 06:00:45;;;;;;;;;;;0.50;100.00;;;;;;5005099;28;19937;-68
2024/02/08 06:03:25;;;;;;;;;;;0.50;100.00;;;;;;4986774;28;19956;-68
2024/02/08 06:06:06;;;;;;;;;;;0.50;100.00;;;;;;4996254;28;19933;-68
2024/02/08 06:08:40;;;;;;;;;;;0.50;100.00;;;;;;5005749;28;19936;-68
2024/02/08 06:11:14;;;;;;;;;;;0.50;100.00;;;;;;4993379;28;19929;-68
2024/02/08 06:13:41;;;;;;;;;;;0.50;100.00;;;;;;5005624;28;19980;-68
2024/02/08 06:16:14;;;;;;;;;;;0.50;100.00;;;;;;5005507;28;20478;-68
2024/02/08 06:18:45;;;;;;;;;;;0.50;100.00;;;;;;5010337;28;19929;-68
2024/02/08 06:21:18;;;;;;;;;;;0.50;100.00;;;;;;5012299;28;20488;-68
2024/02/08 06:23:45;;;;;;;;;;;0.50;100.00;;;;;;5007769;28;19929;-68
2024/02/08 06:28:52;;;;;;;;;;;0.50;100.00;;;;;;5005769;28;19991;-68
2024/02/08 06:31:19;;;;;;;;;;;0.40;100.00;;;;;;4988297;28;20369;-68
2024/02/08 06:36:42;;;;;;;;;;;0.40;100.00;;;;;;5008499;28;19926;-68
2024/02/08 06:39:23;;;;;;;;;;;0.40;100.00;;;;;;5018600;28;19982;-68
2024/02/08 06:41:52;;;;;;;;;;;0.40;100.00;;;;;;4995577;28;19929;-68
2024/02/08 07:37:18;;;;;;;;;;;0.20;100.00;;;;;;5002878;28;19934;-69
2024/02/08 07:40:18;;;;;;;;;;;0.30;100.00;;;;;;5005960;28;19968;-68
2024/02/08 07:42:52;;;;;;;;;;;0.30;100.00;;;;;;5007612;28;19992;-68
2024/02/08 07:45:26;;;;;;;;;;;0.30;100.00;;;;;;4998123;28;19989;-68
2024/02/08 07:47:58;;;;;;;;;;;0.40;100.00;;;;;;5008886;28;19938;-68
2024/02/08 07:50:35;;;;;;;;;;;0.40;100.00;;;;;;5008793;28;20444;-68
2024/02/08 07:53:08;;;;;;;;;;;0.40;100.00;;;;;;5009624;28;19925;-68
2024/02/08 07:58:07;;;;;;;;;;;0.50;100.00;;;;;;5008369;28;19930;-68
2024/02/08 08:03:15;;;;;;;;;;;0.50;100.00;;;;;;5007037;28;19948;-68
2024/02/08 08:05:44;;;;;;;;;;;0.60;100.00;;;;;;5011825;28;19968;-68
2024/02/08 08:08:28;;;;;;;;;;;0.60;100.00;;;;;;5017285;28;20412;-68
2024/02/08 08:11:45;;;;;;;;;;;0.70;100.00;;;;;;5008865;28;19929;-68
2024/02/08 08:19:07;;;;;;;;;;;0.80;100.00;;;;;;5015866;28;20032;-68
2024/02/08 08:22:03;;;;;;;;;;;0.80;100.00;;;;;;4992243;28;19929;-68
2024/02/08 08:24:25;;;;;;;;;;;0.90;100.00;;;;;;5016317;28;19925;-68
2024/02/08 08:27:47;;;;;;;;;;;0.90;100.00;;;;;;5007822;28;19926;-68
2024/02/08 08:29:49;;;;;;;;;;;0.90;100.00;;;;;;5002527;28;19929;-68
2024/02/08 08:38:28;;;;;;;;;;;1.10;100.00;;;;;;5025712;28;19929;-68
2024/02/08 08:40:39;;;;;;;;;;;1.20;100.00;;;;;;5007012;28;19936;-68
2024/02/08 08:43:18;;;;;;;;;;;1.20;100.00;;;;;;5007893;28;20008;-68
2024/02/08 08:45:50;;;;;;;;;;;1.20;100.00;;;;;;5015662;28;20067;-68
2024/02/08 08:48:21;;;;;;;;;;;1.30;100.00;;;;;;4994949;28;19929;-68
2024/02/08 08:50:54;;;;;;;;;;;1.30;100.00;;;;;;4989395;28;20534;-68
2024/02/08 08:53:27;;;;;;;;;;;1.40;100.00;;;;;;5015120;28;20008;-68
2024/02/08 08:55:55;;;;;;;;;;;1.50;100.00;;;;;;5010061;28;19936;-68
2024/02/08 08:58:27;;;;;;;;;;;1.60;100.00;;;;;;5022803;28;19952;-68
2024/02/08 09:01:15;;;;;;;;;;;1.60;100.00;;;;;;5010506;28;20589;-68
2024/02/08 09:04:08;;;;;;;;;;;1.70;100.00;;;;;;5007658;28;20015;-68
2024/02/08 09:06:38;;;;;;;;;;;1.80;100.00;;;;;;5005220;28;19976;-68
2024/02/08 09:09:27;;;;;;;;;;;2.00;100.00;;;;;;4995695;28;19968;-68
2024/02/08 09:12:00;;;;;;;;;;;2.10;100.00;;;;;;5007404;28;19930;-68
2024/02/08 09:14:30;;;;;;;;;;;2.20;100.00;;;;;;5007491;28;20476;-68
2024/02/08 09:16:58;;;;;;;;;;;2.30;100.00;;;;;;5006950;28;19963;-68
2024/02/08 09:19:28;;;;;;;;;;;2.30;100.00;;;;;;4995756;28;19999;-68
2024/02/08 09:22:02;;;;;;;;;;;2.40;100.00;;;;;;5007346;28;19929;-68
2024/02/08 09:24:29;;;;;;;;;;;2.50;100.00;;;;;;4996964;28;19929;-68
2024/02/08 09:27:15;;;;;;;;;;;2.50;100.00;;;;;;5015611;28;19956;-68
2024/02/08 09:29:43;;;;;;;;;;;2.50;100.00;;;;;;5006597;28;19929;-68
2024/02/08 09:34:58;;;;;;;;;;;2.50;100.00;;;;;;5008386;28;20020;-68
2024/02/08 09:37:25;;;;;;;;;;;2.50;100.00;;;;;;5006608;28;19985;-68
2024/02/08 09:42:29;;;;;;;;;;;2.50;100.00;;;;;;5016206;28;19929;-68
2024/02/08 09:45:13;;;;;;;;;;;2.40;100.00;;;;;;5011895;28;19944;-68
2024/02/08 09:47:50;;;;;;;;;;;2.40;100.00;;;;;;5005450;28;19933;-68
2024/02/08 09:50:35;;;;;;;;;;;2.40;100.00;;;;;;5006210;28;19955;-68
2024/02/08 09:53:15;;;;;;;;;;;2.40;100.00;;;;;;5006245;28;19936;-68
2024/02/08 09:55:43;;;;;;;;;;;2.30;100.00;;;;;;5006490;28;19929;-68
2024/02/08 09:58:13;;;;;;;;;;;2.30;100.00;;;;;;5006580;28;19975;-68
2024/02/08 10:00:54;;;;;;;;;;;2.20;100.00;;;;;;5006464;28;19971;-68
2024/02/08 10:03:31;;;;;;;;;;;2.20;100.00;;;;;;5005320;28;19936;-68
2024/02/08 10:06:12;;;;;;;;;;;2.10;100.00;;;;;;5012438;28;19929;-68
2024/02/08 10:08:51;;;;;;;;;;;2.10;100.00;;;;;;5016524;28;19929;-68
2024/02/08 10:11:35;;;;;;;;;;;2.10;100.00;;;;;;5010816;28;19941;-68
2024/02/08 10:14:02;;;;;;;;;;;2.20;100.00;;;;;;5010791;28;20486;-68
2024/02/08 10:16:29;;;;;;;;;;;2.10;100.00;;;;;;5008404;28;19940;-68
2024/02/08 10:19:03;;;;;;;;;;;2.20;100.00;;;;;;5009527;28;20440;-68
2024/02/08 10:21:35;;;;;;;;;;;2.10;100.00;;;;;;5000613;28;19929;-68
2024/02/08 10:24:25;;;;;;;;;;;2.10;100.00;;;;;;5010757;28;20514;-68
2024/02/08 10:26:58;;;;;;;;;;;2.20;100.00;;;;;;5011227;28;20023;-68
2024/02/08 10:29:25;;;;;;;;;;;2.30;100.00;;;;;;5009087;28;19929;-68
2024/02/08 10:31:59;;;;;;;;;;;2.40;100.00;;;;;;5003339;28;19925;-68
2024/02/08 10:34:33;;;;;;;;;;;2.40;100.00;;;;;;5013071;28;20374;-68
2024/02/08 10:37:04;;;;;;;;;;;2.50;100.00;;;;;;4980331;28;20020;-68
2024/02/08 10:39:32;;;;;;;;;;;2.50;100.00;;;;;;5008672;28;19959;-68
2024/02/08 10:42:00;;;;;;;;;;;2.50;100.00;;;;;;5010409;28;19933;-68
2024/02/08 10:44:34;;;;;;;;;;;2.60;100.00;;;;;;5007751;28;20687;-68
2024/02/08 10:47:08;;;;;;;;;;;2.60;100.00;;;;;;5009314;28;19940;-68
2024/02/08 10:49:42;;;;;;;;;;;2.70;100.00;;;;;;5009339;28;19930;-68
2024/02/08 10:52:19;;;;;;;;;;;2.70;100.00;;;;;;5014835;28;19929;-68
2024/02/08 10:54:53;;;;;;;;;;;2.80;100.00;;;;;;5009750;28;20303;-68
2024/02/08 10:57:39;;;;;;;;;;;2.90;100.00;;;;;;5009805;28;20012;-68
2024/02/08 11:03:00;;;;;;;;;;;3.00;100.00;;;;;;4995731;28;19938;-68
2024/02/08 11:07:54;;;;;;;;;;;3.10;100.00;;;;;;5021324;28;19991;-68
2024/02/08 11:10:23;;;;;;;;;;;3.20;100.00;;;;;;5008317;28;19934;-68
2024/02/08 11:12:55;;;;;;;;;;;3.30;100.00;;;;;;5009024;28;19937;-68
2024/02/08 11:15:30;;;;;;;;;;;3.50;100.00;;;;;;5009408;28;20016;-68
2024/02/08 11:18:02;;;;;;;;;;;3.50;100.00;;;;;;5006699;28;19930;-68
2024/02/08 11:20:43;;;;;;;;;;;3.70;100.00;;;;;;4996277;28;19975;-68
2024/02/08 11:23:18;;;;;;;;;;;3.90;100.00;;;;;;5015726;28;19930;-68
2024/02/08 11:25:45;;;;;;;;;;;4.00;100.00;;;;;;4991970;28;19960;-68
2024/02/08 11:28:15;;;;;;;;;;;4.10;100.00;;;;;;5009013;28;20552;-68
2024/02/08 11:30:52;;;;;;;;;;;4.20;100.00;;;;;;4992908;28;20068;-68
2024/02/08 11:33:31;;;;;;;;;;;4.20;100.00;;;;;;5012260;28;19929;-68
2024/02/08 11:36:11;;;;;;;;;;;4.30;100.00;;;;;;5012429;28;20649;-68
2024/02/08 11:38:45;;;;;;;;;;;4.40;100.00;;;;;;5020429;28;19987;-68
2024/02/08 11:41:14;;;;;;;;;;;4.50;100.00;;;;;;5008591;28;20004;-68
2024/02/08 11:43:51;;;;;;;;;;;4.60;100.00;;;;;;5015697;28;19995;-68
2024/02/08 11:46:18;;;;;;;;;;;4.50;100.00;;;;;;5024285;28;19929;-68
2024/02/08 11:48:46;;;;;;;;;;;4.60;100.00;;;;;;5008866;28;19929;-68
2024/02/08 11:51:15;;;;;;;;;;;4.50;100.00;;;;;;4990687;28;19929;-68
2024/02/08 11:53:45;;;;;;;;;;;4.50;100.00;;;;;;5009172;28;19929;-68
2024/02/08 11:56:15;;;;;;;;;;;4.50;100.00;;;;;;5007560;28;19936;-68
2024/02/08 11:58:46;;;;;;;;;;;4.60;100.00;;;;;;5009632;28;20012;-68
2024/02/08 12:01:14;;;;;;;;;;;4.60;100.00;;;;;;5008554;28;19940;-68
2024/02/08 12:03:42;;;;;;;;;;;4.60;100.00;;;;;;5008841;28;19930;-68
2024/02/08 12:06:17;;;;;;;;;;;4.50;100.00;;;;;;5009181;28;19929;-68
2024/02/08 12:09:03;;;;;;;;;;;4.50;100.00;;;;;;5014852;28;19979;-68
2024/02/08 12:11:31;;;;;;;;;;;4.50;100.00;;;;;;5009689;28;19929;-68
2024/02/08 12:14:01;;;;;;;;;;;4.50;100.00;;;;;;5008394;28;19929;-68
2024/02/08 12:16:50;;;;;;;;;;;4.50;100.00;;;;;;4997364;28;19971;-68
2024/02/08 12:19:18;;;;;;;;;;;4.40;100.00;;;;;;4994525;28;20625;-68
2024/02/08 12:21:57;;;;;;;;;;;4.40;100.00;;;;;;5018159;28;19936;-68
2024/02/08 12:24:25;;;;;;;;;;;4.40;100.00;;;;;;5008477;28;20674;-68
2024/02/08 12:26:57;;;;;;;;;;;4.50;100.00;;;;;;5007991;28;20564;-68
2024/02/08 12:29:25;;;;;;;;;;;4.60;100.00;;;;;;5006133;28;19929;-68
2024/02/08 12:31:57;;;;;;;;;;;4.60;100.00;;;;;;5011480;28;20534;-68
2024/02/08 12:34:31;;;;;;;;;;;4.60;100.00;;;;;;5017405;28;19935;-68
2024/02/08 12:37:03;;;;;;;;;;;4.60;100.00;;;;;;4989796;28;19930;-68
2024/02/08 12:39:30;;;;;;;;;;;4.60;100.00;;;;;;5008253;28;19937;-68
2024/02/08 12:41:58;;;;;;;;;;;4.60;100.00;;;;;;5008468;28;19929;-68
2024/02/08 12:44:26;;;;;;;;;;;4.60;100.00;;;;;;5007885;28;19961;-68
2024/02/08 12:46:56;;;;;;;;;;;4.70;100.00;;;;;;5006957;28;20461;-68
2024/02/08 12:49:24;;;;;;;;;;;4.70;100.00;;;;;;5008022;28;19973;-68
2024/02/08 12:52:09;;;;;;;;;;;4.60;100.00;;;;;;5116483;27;20434;-67
2024/02/08 12:54:37;;;;;;;;;;;4.70;100.00;;;;;;5104665;28;19924;-67
2024/02/08 12:57:10;;;;;;;;;;;4.70;100.00;;;;;;5104495;28;19967;-67
2024/02/08 12:59:38;;;;;;;;;;;4.70;100.00;;;;;;5104541;28;19973;-67
2024/02/08 13:02:16;;;;;;;;;;;4.90;100.00;;;;;;5085214;28;19928;-67
2024/02/08 13:04:44;;;;;;;;;;;4.80;100.00;;;;;;5086080;28;20424;-67
2024/02/08 13:07:15;;;;;;;;;;;4.90;100.00;;;;;;5103816;28;19986;-67
2024/02/08 13:09:44;;;;;;;;;;;5.00;100.00;;;;;;5104429;28;20575;-68
2024/02/08 13:12:14;;;;;;;;;;;5.00;100.00;;;;;;5085829;28;19932;-68
2024/02/08 13:14:48;;;;;;;;;;;5.10;100.00;;;;;;5103632;28;19928;-68
2024/02/08 13:17:19;;;;;;;;;;;5.10;100.00;;;;;;5104129;28;20379;-68
2024/02/08 13:19:47;;;;;;;;;;;5.10;100.00;;;;;;5104285;28;19957;-68
2024/02/08 13:22:20;;;;;;;;;;;5.20;100.00;;;;;;5104045;28;19947;-68
2024/02/08 13:24:51;;;;;;;;;;;5.10;100.00;;;;;;5103643;28;19928;-68
2024/02/08 13:27:29;;;;;;;;;;;5.10;100.00;;;;;;5099708;28;20022;-68
2024/02/08 13:29:57;;;;;;;;;;;5.00;100.00;;;;;;5114891;27;20080;-68
2024/02/08 13:32:28;;;;;;;;;;;4.90;100.00;;;;;;5102960;28;19936;-68
2024/02/08 13:34:57;;;;;;;;;;;4.90;100.00;;;;;;5077203;28;19928;-68
2024/02/08 13:37:26;;;;;;;;;;;4.80;100.00;;;;;;5098715;28;20034;-68
2024/02/08 13:39:59;;;;;;;;;;;4.80;100.00;;;;;;5100235;28;19934;-68
2024/02/08 13:42:30;;;;;;;;;;;4.70;100.00;;;;;;5103709;28;19924;-68
2024/02/08 13:45:13;;;;;;;;;;;4.60;100.00;;;;;;5091520;28;19928;-67
2024/02/08 13:47:49;;;;;;;;;;;4.50;100.00;;;;;;5103421;28;19967;-67
2024/02/08 13:50:17;;;;;;;;;;;4.40;100.00;;;;;;5103658;28;19927;-67
2024/02/08 13:52:48;;;;;;;;;;;4.30;100.00;;;;;;5104941;28;20032;-68
2024/02/08 13:55:18;;;;;;;;;;;4.20;100.00;;;;;;5082763;28;19927;-68
2024/02/08 13:57:50;;;;;;;;;;;4.20;100.00;;;;;;5101874;28;20025;-68
2024/02/08 14:00:21;;;;;;;;;;;4.20;100.00;;;;;;5084893;28;19928;-68
2024/02/08 14:02:49;;;;;;;;;;;4.00;100.00;;;;;;5091739;28;19971;-68
2024/02/08 14:05:20;;;;;;;;;;;4.00;100.00;;;;;;5071150;28;19975;-68
2024/02/08 14:07:47;;;;;;;;;;;4.00;100.00;;;;;;5088902;28;19935;-68
2024/02/08 14:10:17;;;;;;;;;;;4.00;100.00;;;;;;5093435;28;19934;-68
2024/02/08 14:12:48;;;;;;;;;;;3.90;100.00;;;;;;5088683;28;19928;-68
2024/02/08 14:15:21;;;;;;;;;;;3.90;100.00;;;;;;5089941;28;19935;-68
2024/02/08 14:17:54;;;;;;;;;;;3.90;100.00;;;;;;5089614;28;19977;-67
2024/02/08 14:20:30;;;;;;;;;;;3.90;100.00;;;;;;5070496;28;19928;-68
2024/02/08 14:23:01;;;;;;;;;;;3.90;100.00;;;;;;5104696;28;20456;-68
2024/02/08 14:28:14;;;;;;;;;;;3.80;100.00;;;;;;5078893;28;20396;-68
2024/02/08 14:30:40;;;;;;;;;;;3.90;100.00;;;;;;5088953;28;19928;-68
2024/02/08 14:33:07;;;;;;;;;;;3.90;100.00;;;;;;5089113;28;20281;-68
2024/02/08 14:35:34;;;;;;;;;;;3.90;100.00;;;;;;5089191;28;19928;-68
2024/02/08 14:38:01;;;;;;;;;;;3.90;100.00;;;;;;5088104;28;20022;-68
2024/02/08 14:40:27;;;;;;;;;;;3.90;100.00;;;;;;5088519;28;19968;-67
2024/02/08 14:42:57;;;;;;;;;;;3.90;100.00;;;;;;5070230;28;19932;-68
2024/02/08 14:45:30;;;;;;;;;;;3.80;100.00;;;;;;5088571;28;19931;-67
2024/02/08 14:48:00;;;;;;;;;;;3.80;100.00;;;;;;5104112;28;19928;-67
2024/02/08 14:53:12;;;;;;;;;;;3.80;100.00;;;;;;5082381;28;19924;-68
2024/02/08 14:55:45;;;;;;;;;;;3.70;100.00;;;;;;5088356;28;19928;-68
2024/02/08 14:58:33;;;;;;;;;;;3.60;100.00;;;;;;5088270;28;19954;-68
2024/02/08 15:01:11;;;;;;;;;;;3.60;100.00;;;;;;5088881;28;20042;-69
2024/02/08 15:03:38;;;;;;;;;;;3.60;100.00;;;;;;5088931;28;20015;-69
2024/02/08 15:06:06;;;;;;;;;;;3.60;100.00;;;;;;5087811;28;20076;-68
2024/02/08 15:08:45;;;;;;;;;;;3.50;100.00;;;;;;5088312;28;20001;-68
2024/02/08 15:11:38;;;;;;;;;;;3.50;100.00;;;;;;5098936;28;20014;-68
2024/02/08 15:14:02;;;;;;;;;;;3.50;100.00;;;;;;5088555;28;19932;-68
2024/02/08 15:16:31;;;;;;;;;;;3.40;100.00;;;;;;5088082;28;19932;-68
2024/02/08 15:18:59;;;;;;;;;;;3.40;100.00;;;;;;5087758;28;20360;-68
2024/02/08 15:21:34;;;;;;;;;;;3.40;100.00;;;;;;5088370;28;19928;-68
2024/02/08 15:26:37;;;;;;;;;;;3.30;100.00;;;;;;5088284;28;19928;-69
2024/02/08 15:29:04;;;;;;;;;;;3.30;100.00;;;;;;5087419;28;19978;-69
2024/02/08 15:36:47;;;;;;;;;;;3.10;100.00;;;;;;5088154;28;19936;-68
2024/02/08 15:39:27;;;;;;;;;;;3.10;100.00;;;;;;5087874;28;20380;-68
2024/02/08 15:42:01;;;;;;;;;;;3.10;100.00;;;;;;5056867;28;19931;-68
2024/02/08 15:44:34;;;;;;;;;;;3.00;100.00;;;;;;5086809;28;20023;-68
2024/02/08 15:47:11;;;;;;;;;;;3.00;100.00;;;;;;5087341;28;19935;-68
2024/02/08 15:49:42;;;;;;;;;;;2.90;100.00;;;;;;5069812;28;19987;-68
2024/02/08 15:52:15;;;;;;;;;;;2.80;100.00;;;;;;5098584;28;20030;-68
2024/02/08 15:54:44;;;;;;;;;;;2.80;100.00;;;;;;5099151;28;20491;-68
2024/02/08 15:57:12;;;;;;;;;;;2.80;100.00;;;;;;5087314;28;19924;-69
2024/02/08 15:59:44;;;;;;;;;;;2.70;100.00;;;;;;5056047;28;19997;-68
2024/02/08 16:02:15;;;;;;;;;;;2.70;100.00;;;;;;5087718;28;19985;-68
2024/02/08 16:04:49;;;;;;;;;;;;;;;;;;;;;
2024/02/08 16:07:14;;;;;;;;;;;2.60;100.00;;;;;;5085987;28;20014;-68
2024/02/08 16:09:57;;;;;;;;;;;2.50;100.00;;;;;;5067833;28;19928;-68
2024/02/08 16:15:04;;;;;;;;;;;2.50;100.00;;;;;;5094721;28;19924;-68
2024/02/08 16:17:36;;;;;;;;;;;2.40;100.00;;;;;;5086500;28;19928;-68
2024/02/08 16:20:23;;;;;;;;;;;2.40;100.00;;;;;;5087290;28;19939;-68
2024/02/08 16:23:04;;;;;;;;;;;2.30;100.00;;;;;;5087570;28;20027;-68
2024/02/08 16:28:17;;;;;;;;;;;2.30;100.00;;;;;;5086319;28;20577;-69
2024/02/08 16:31:00;;;;;;;;;;;2.20;100.00;;;;;;5086820;28;19932;-69
2024/02/08 16:33:33;;;;;;;;;;;2.20;100.00;;;;;;5087064;28;19951;-69
2024/02/08 16:36:21;;;;;;;;;;;2.20;100.00;;;;;;5086070;28;20022;-69
2024/02/08 16:38:57;;;;;;;;;;;2.20;100.00;;;;;;5086470;28;19936;-69
2024/02/08 16:41:30;;;;;;;;;;;2.20;100.00;;;;;;5087211;28;19942;-69
2024/02/08 16:44:03;;;;;;;;;;;2.10;100.00;;;;;;5087312;28;19931;-69
2024/02/08 16:46:37;;;;;;;;;;;2.10;100.00;;;;;;5068969;28;19934;-68
2024/02/08 16:49:06;;;;;;;;;;;2.10;100.00;;;;;;5084831;28;19973;-69
2024/02/08 16:52:07;;;;;;;;;;;2.00;100.00;;;;;;5083937;28;20057;-68
2024/02/08 16:56:56;;;;;;;;;;;2.00;100.00;;;;;;5086896;28;20542;-68
2024/02/08 16:59:29;;;;;;;;;;;2.00;100.00;;;;;;5086892;28;20032;-68
2024/02/08 17:02:11;;;;;;;;;;;2.00;100.00;;;;;;5086347;28;20892;-69
2024/02/08 17:04:48;;;;;;;;;;;1.90;100.00;;;;;;5086048;28;19971;-68
2024/02/08 17:07:45;;;;;;;;;;;1.90;100.00;;;;;;5086824;28;20006;-69
2024/02/08 17:11:01;;;;;;;;;;;1.90;100.00;;;;;;5085962;28;19928;-68
2024/02/08 17:13:10;;;;;;;;;;;1.80;100.00;;;;;;5073439;28;20550;-69